createdAt,value
2022-09-15T00:00:05.890Z,18.50
2022-09-15T00:02:33.248Z,18.50
2022-09-15T00:05:01.100Z,18.60
2022-09-15T00:07:28.343Z,18.60
2022-09-15T00:09:55.637Z,18.60
2022-09-15T00:12:23.103Z,18.60
2022-09-15T00:14:50.441Z,18.60
2022-09-15T00:17:17.739Z,18.60
2022-09-15T00:19:45.191Z,18.60
2022-09-15T00:22:12.585Z,18.60
2022-09-15T00:24:41.234Z,18.70
2022-09-15T00:27:08.960Z,18.70
2022-09-15T00:29:36.396Z,18.70
2022-09-15T00:32:04.230Z,18.70
2022-09-15T00:34:31.547Z,18.70
2022-09-15T00:36:58.812Z,18.70
2022-09-15T00:39:26.217Z,18.70
2022-09-15T00:41:53.497Z,18.70
2022-09-15T00:44:20.909Z,18.70
2022-09-15T00:47:04.306Z,18.70
2022-09-15T00:49:39.480Z,18.70
2022-09-15T00:52:08.863Z,18.70
2022-09-15T00:54:39.027Z,18.70
2022-09-15T00:57:09.096Z,18.70
2022-09-15T00:59:37.697Z,18.70
2022-09-15T01:02:19.996Z,18.70
2022-09-15T01:04:47.660Z,18.60
2022-09-15T01:07:16.585Z,18.60
2022-09-15T01:09:50.353Z,18.60
2022-09-15T01:12:18.089Z,18.60
2022-09-15T01:14:45.454Z,18.60
2022-09-15T01:17:12.788Z,18.60
2022-09-15T01:19:45.916Z,18.60
2022-09-15T01:22:31.733Z,18.60
2022-09-15T01:25:02.194Z,18.60
2022-09-15T01:27:43.019Z,18.60
2022-09-15T01:30:19.790Z,18.60
2022-09-15T01:33:05.301Z,18.60
2022-09-15T01:35:40.326Z,18.60
2022-09-15T01:38:22.760Z,18.60
2022-09-15T01:41:02.497Z,18.50
2022-09-15T01:43:30.299Z,18.50
2022-09-15T01:45:58.687Z,18.50
2022-09-15T01:48:27.197Z,18.60
2022-09-15T01:50:59.352Z,18.50
2022-09-15T01:53:27.147Z,18.50
2022-09-15T01:55:57.011Z,18.50
2022-09-15T01:58:24.358Z,18.40
2022-09-15T02:00:56.398Z,18.40
2022-09-15T02:03:44.872Z,18.30
2022-09-15T02:06:37.429Z,18.30
2022-09-15T02:09:08.078Z,18.30
2022-09-15T02:11:36.734Z,18.30
2022-09-15T02:14:13.061Z,18.40
2022-09-15T02:16:43.939Z,18.30
2022-09-15T02:19:16.318Z,18.30
2022-09-15T02:21:46.657Z,18.20
2022-09-15T02:24:19.359Z,18.20
2022-09-15T02:26:48.598Z,18.20
2022-09-15T02:29:17.293Z,18.20
2022-09-15T02:31:45.818Z,18.10
2022-09-15T02:34:19.765Z,18.20
2022-09-15T02:36:48.682Z,18.20
2022-09-15T02:39:19.677Z,18.20
2022-09-15T02:41:47.293Z,18.20
2022-09-15T02:44:15.353Z,18.20
2022-09-15T02:46:43.948Z,18.20
2022-09-15T02:49:11.441Z,18.20
2022-09-15T02:51:38.722Z,18.20
2022-09-15T02:54:06.222Z,18.20
2022-09-15T02:56:33.557Z,18.20
2022-09-15T02:59:00.863Z,18.20
2022-09-15T03:01:35.080Z,18.20
2022-09-15T03:04:03.221Z,18.20
2022-09-15T03:06:34.640Z,18.20
2022-09-15T03:09:04.320Z,18.30
2022-09-15T03:11:32.004Z,18.20
2022-09-15T03:14:00.496Z,18.20
2022-09-15T03:16:30.631Z,18.20
2022-09-15T03:18:59.675Z,18.20
2022-09-15T03:21:27.912Z,18.20
2022-09-15T03:23:55.811Z,18.20
2022-09-15T03:26:23.201Z,18.20
2022-09-15T03:28:50.502Z,18.20
2022-09-15T03:31:17.897Z,18.20
2022-09-15T03:33:45.179Z,18.30
2022-09-15T03:36:12.704Z,18.30
2022-09-15T03:38:40.031Z,18.20
2022-09-15T03:41:08.911Z,18.20
2022-09-15T03:43:36.995Z,18.30
2022-09-15T03:46:05.050Z,18.20
2022-09-15T03:48:33.227Z,18.20
2022-09-15T03:51:00.561Z,18.20
2022-09-15T03:53:27.866Z,18.10
2022-09-15T03:55:55.266Z,18.10
2022-09-15T03:58:22.764Z,18.10
2022-09-15T04:00:50.116Z,18.10
2022-09-15T04:03:17.376Z,18.10
2022-09-15T04:05:45.111Z,18.10
2022-09-15T04:08:14.315Z,18.10
2022-09-15T04:10:41.761Z,18.00
2022-09-15T04:13:09.158Z,18.10
2022-09-15T04:15:36.908Z,18.10
2022-09-15T04:18:05.126Z,18.10
2022-09-15T04:20:32.583Z,18.10
2022-09-15T04:22:59.969Z,18.10
2022-09-15T04:25:28.182Z,18.10
2022-09-15T04:27:56.748Z,18.10
2022-09-15T04:30:24.327Z,18.10
2022-09-15T04:32:52.669Z,18.10
2022-09-15T04:35:21.998Z,18.10
2022-09-15T04:37:49.483Z,18.10
2022-09-15T04:40:16.877Z,18.10
2022-09-15T04:42:44.319Z,18.00
2022-09-15T04:45:11.979Z,18.00
2022-09-15T04:47:39.331Z,18.10
2022-09-15T04:50:06.839Z,18.10
2022-09-15T04:52:34.160Z,18.10
2022-09-15T04:55:01.566Z,18.10
2022-09-15T04:57:28.958Z,18.10
2022-09-15T04:59:56.267Z,18.10
2022-09-15T05:02:23.582Z,18.10
2022-09-15T05:04:51.815Z,18.10
2022-09-15T05:07:19.195Z,18.10
2022-09-15T05:09:46.669Z,18.10
2022-09-15T05:12:14.443Z,18.10
2022-09-15T05:14:44.575Z,18.10
2022-09-15T05:17:11.940Z,18.10
2022-09-15T05:19:39.527Z,18.10
2022-09-15T05:22:06.890Z,18.10
2022-09-15T05:24:34.837Z,18.10
2022-09-15T05:27:02.199Z,18.10
2022-09-15T05:29:29.545Z,18.10
2022-09-15T05:31:56.983Z,18.10
2022-09-15T05:34:24.295Z,18.10
2022-09-15T05:36:51.694Z,18.20
2022-09-15T05:39:18.981Z,18.10
2022-09-15T05:41:47.767Z,18.20
2022-09-15T05:44:15.228Z,18.10
2022-09-15T05:46:42.882Z,18.20
2022-09-15T05:49:11.967Z,18.20
2022-09-15T05:51:39.311Z,18.20
2022-09-15T05:54:06.838Z,18.20
2022-09-15T05:56:34.126Z,18.20
2022-09-15T05:59:01.444Z,18.20
2022-09-15T06:01:30.173Z,18.20
2022-09-15T06:03:57.990Z,18.20
2022-09-15T06:06:26.051Z,18.20
2022-09-15T06:08:58.604Z,18.20
2022-09-15T06:11:28.174Z,18.20
2022-09-15T06:13:56.001Z,18.20
2022-09-15T06:16:24.350Z,18.20
2022-09-15T06:18:53.178Z,18.20
2022-09-15T06:21:25.778Z,18.30
2022-09-15T06:23:57.100Z,18.20
2022-09-15T06:26:24.803Z,18.20
2022-09-15T06:28:56.085Z,18.20
2022-09-15T06:31:24.245Z,18.20
2022-09-15T06:33:52.608Z,18.20
2022-09-15T06:36:21.062Z,18.30
2022-09-15T06:38:48.517Z,18.30
2022-09-15T06:41:16.032Z,18.30
2022-09-15T06:43:43.756Z,18.30
2022-09-15T06:46:12.439Z,18.30
2022-09-15T06:48:40.635Z,18.30
2022-09-15T06:51:09.556Z,18.30
2022-09-15T06:53:38.380Z,18.30
2022-09-15T06:56:10.387Z,18.40
2022-09-15T06:58:38.832Z,18.40
2022-09-15T07:01:10.048Z,18.40
2022-09-15T07:03:38.270Z,18.40
2022-09-15T07:06:06.095Z,18.40
2022-09-15T07:08:33.470Z,18.40
2022-09-15T07:11:01.188Z,18.50
2022-09-15T07:13:28.508Z,18.50
2022-09-15T07:15:57.007Z,18.50
2022-09-15T07:18:24.921Z,18.60
2022-09-15T07:20:52.647Z,18.60
2022-09-15T07:23:19.916Z,18.60
2022-09-15T07:25:47.368Z,18.70
2022-09-15T07:28:15.318Z,18.70
2022-09-15T07:30:43.564Z,18.70
2022-09-15T07:33:13.532Z,18.80
2022-09-15T07:35:44.325Z,18.80
2022-09-15T07:38:11.623Z,18.80
2022-09-15T07:40:39.123Z,18.90
2022-09-15T07:43:06.790Z,18.90
2022-09-15T07:45:35.810Z,19.00
2022-09-15T07:48:03.319Z,19.10
2022-09-15T07:50:30.602Z,19.00
2022-09-15T07:52:58.060Z,19.10
2022-09-15T07:55:25.537Z,19.10
2022-09-15T07:58:02.439Z,19.10
2022-09-15T08:00:29.808Z,19.20
2022-09-15T08:02:57.212Z,19.20
2022-09-15T08:05:28.528Z,19.10
2022-09-15T08:07:56.401Z,19.00
2022-09-15T08:10:25.387Z,18.90
2022-09-15T08:12:52.917Z,18.80
2022-09-15T08:15:20.792Z,18.70
2022-09-15T08:17:48.087Z,18.60
2022-09-15T08:20:15.441Z,18.50
2022-09-15T08:22:42.867Z,18.50
2022-09-15T08:25:10.275Z,18.40
2022-09-15T08:27:37.611Z,18.40
2022-09-15T08:30:05.386Z,18.30
2022-09-15T08:32:32.980Z,18.20
2022-09-15T08:35:00.428Z,18.20
2022-09-15T08:37:27.697Z,18.10
2022-09-15T08:39:54.950Z,18.00
2022-09-15T08:42:24.382Z,17.90
2022-09-15T08:44:57.830Z,17.90
2022-09-15T08:47:28.236Z,17.80
2022-09-15T08:50:01.329Z,17.80
2022-09-15T08:52:31.467Z,17.80
2022-09-15T08:55:01.009Z,17.80
2022-09-15T08:57:28.436Z,17.80
2022-09-15T08:59:56.280Z,17.80
2022-09-15T09:02:30.054Z,17.90
2022-09-15T09:05:03.239Z,17.90
2022-09-15T09:07:33.461Z,18.00
2022-09-15T09:10:15.861Z,18.00
2022-09-15T09:13:01.729Z,18.10
2022-09-15T09:15:31.979Z,18.20
2022-09-15T09:18:02.152Z,18.20
2022-09-15T09:20:38.521Z,18.30
2022-09-15T09:23:11.040Z,18.40
2022-09-15T09:25:38.939Z,18.50
2022-09-15T09:28:23.345Z,18.60
2022-09-15T09:30:50.678Z,18.70
2022-09-15T09:33:18.616Z,18.80
2022-09-15T09:35:52.898Z,18.90
2022-09-15T09:38:26.493Z,19.00
2022-09-15T09:40:56.518Z,19.00
2022-09-15T09:43:28.079Z,19.10
2022-09-15T09:45:55.614Z,19.10
2022-09-15T09:48:24.553Z,19.20
2022-09-15T09:50:51.939Z,19.30
2022-09-15T09:53:32.954Z,19.30
2022-09-15T09:56:12.293Z,19.40
2022-09-15T09:58:39.565Z,19.50
2022-09-15T10:01:14.354Z,19.50
2022-09-15T10:03:43.491Z,19.50
2022-09-15T10:06:16.285Z,19.50
2022-09-15T10:08:58.319Z,19.50
2022-09-15T10:11:46.025Z,19.50
2022-09-15T10:14:21.243Z,19.50
2022-09-15T10:16:58.981Z,19.50
2022-09-15T10:19:27.528Z,19.50
2022-09-15T10:21:54.852Z,19.50
2022-09-15T10:24:28.237Z,19.50
2022-09-15T10:27:27.852Z,19.40
2022-09-15T10:29:55.847Z,19.40
2022-09-15T10:32:25.511Z,19.30
2022-09-15T10:35:02.614Z,19.30
2022-09-15T10:37:29.889Z,19.30
2022-09-15T10:39:59.838Z,19.30
2022-09-15T10:42:30.279Z,19.40
2022-09-15T10:45:16.137Z,19.40
2022-09-15T10:47:55.693Z,19.40
2022-09-15T10:50:42.662Z,19.40
2022-09-15T10:53:16.284Z,19.40
2022-09-15T10:56:00.806Z,19.30
2022-09-15T10:58:45.639Z,19.30
2022-09-15T11:01:29.235Z,19.20
2022-09-15T11:04:14.965Z,19.10
2022-09-15T11:06:42.763Z,19.00
2022-09-15T11:09:21.865Z,18.90
2022-09-15T11:11:52.223Z,18.80
2022-09-15T11:14:19.782Z,18.70
2022-09-15T11:17:10.168Z,18.60
2022-09-15T11:19:46.444Z,18.60
2022-09-15T11:22:16.814Z,18.60
2022-09-15T11:24:47.109Z,18.60
2022-09-15T11:27:22.963Z,18.60
2022-09-15T11:29:53.402Z,18.60
2022-09-15T11:32:24.923Z,18.60
2022-09-15T11:35:08.361Z,18.50
2022-09-15T11:37:46.224Z,18.50
2022-09-15T11:40:16.698Z,18.30
2022-09-15T11:42:51.913Z,18.20
2022-09-15T11:45:41.934Z,18.10
2022-09-15T11:48:14.007Z,18.00
2022-09-15T11:50:43.691Z,17.90
2022-09-15T11:53:11.056Z,17.90
2022-09-15T11:55:41.853Z,17.90
2022-09-15T11:58:27.854Z,17.90
2022-09-15T12:01:01.015Z,17.90
2022-09-15T12:03:37.895Z,18.00
2022-09-15T12:06:05.306Z,18.10
2022-09-15T12:08:44.456Z,18.10
2022-09-15T12:11:16.487Z,18.20
2022-09-15T12:13:43.912Z,18.20
2022-09-15T12:16:13.230Z,18.30
2022-09-15T12:18:46.775Z,18.40
2022-09-15T12:21:20.277Z,18.50
2022-09-15T12:23:53.591Z,18.60
2022-09-15T12:26:22.082Z,18.70
2022-09-15T12:28:54.466Z,18.80
2022-09-15T12:31:32.685Z,18.90
2022-09-15T12:34:01.834Z,19.00
2022-09-15T12:36:31.942Z,19.10
2022-09-15T12:39:00.160Z,19.20
2022-09-15T12:41:27.756Z,19.30
2022-09-15T12:43:56.175Z,19.40
2022-09-15T12:46:24.298Z,19.50
2022-09-15T12:48:51.866Z,19.60
2022-09-15T12:51:23.285Z,19.70
2022-09-15T12:53:50.703Z,19.80
2022-09-15T12:56:26.395Z,19.90
2022-09-15T12:58:54.135Z,19.90
2022-09-15T13:01:27.382Z,20.00
2022-09-15T13:04:00.718Z,20.00
2022-09-15T13:06:28.157Z,20.00
2022-09-15T13:09:01.588Z,19.90
2022-09-15T13:11:37.622Z,19.90
2022-09-15T13:14:08.192Z,19.80
2022-09-15T13:16:41.506Z,19.70
2022-09-15T13:19:12.854Z,19.60
2022-09-15T13:21:41.482Z,19.50
2022-09-15T13:24:14.558Z,19.40
2022-09-15T13:26:42.514Z,19.40
2022-09-15T13:29:13.044Z,19.30
2022-09-15T13:31:46.141Z,19.20
2022-09-15T13:40:51.840Z,19.10
2022-09-15T13:43:31.311Z,19.00
2022-09-15T13:46:29.090Z,18.90
2022-09-15T13:48:56.530Z,18.80
2022-09-15T13:51:28.368Z,18.70
2022-09-15T13:54:02.609Z,18.60
2022-09-15T13:56:32.957Z,18.40
2022-09-15T13:59:10.454Z,18.30
2022-09-15T14:01:42.619Z,18.10
2022-09-15T14:04:12.380Z,17.90
2022-09-15T14:06:41.900Z,17.80
2022-09-15T14:09:13.023Z,17.60
2022-09-15T14:11:40.925Z,17.40
2022-09-15T14:14:29.414Z,17.30
2022-09-15T14:16:57.007Z,17.20
2022-09-15T14:19:35.227Z,17.10
2022-09-15T14:22:18.687Z,17.10
2022-09-15T14:24:46.148Z,17.00
2022-09-15T14:27:21.714Z,16.90
2022-09-15T14:29:55.687Z,16.90
2022-09-15T14:32:23.130Z,16.90
2022-09-15T14:34:51.221Z,16.90
2022-09-15T14:37:21.105Z,16.90
2022-09-15T14:39:54.249Z,16.80
2022-09-15T14:42:23.216Z,16.80
2022-09-15T14:47:39.287Z,16.90
2022-09-15T14:50:08.520Z,16.90
2022-09-15T14:52:38.296Z,16.90
2022-09-15T14:55:08.080Z,16.90
2022-09-15T14:57:37.929Z,17.00
2022-09-15T15:00:09.937Z,17.10
2022-09-15T15:02:51.176Z,17.10
2022-09-15T15:05:26.981Z,17.30
2022-09-15T15:07:55.855Z,17.40
2022-09-15T15:10:23.179Z,17.50
2022-09-15T15:12:51.829Z,17.60
2022-09-15T15:15:19.814Z,17.70
2022-09-15T15:17:51.069Z,17.90
2022-09-15T15:20:19.760Z,17.90
2022-09-15T15:22:47.124Z,18.00
2022-09-15T15:25:25.802Z,18.00
2022-09-15T15:27:56.886Z,18.10
2022-09-15T15:30:30.960Z,18.10
2022-09-15T15:32:59.769Z,18.10
2022-09-15T15:35:27.886Z,18.00
2022-09-15T15:38:01.849Z,18.10
2022-09-15T15:40:29.565Z,18.10
2022-09-15T15:43:01.125Z,18.00
2022-09-15T15:45:32.831Z,18.00
2022-09-15T15:48:01.548Z,18.00
2022-09-15T15:50:32.581Z,18.10
2022-09-15T15:53:01.357Z,18.10
2022-09-15T15:55:35.850Z,18.20
2022-09-15T15:58:03.166Z,18.30
2022-09-15T16:00:50.125Z,18.20
2022-09-15T16:03:18.062Z,18.30
2022-09-15T16:05:49.802Z,18.30
2022-09-15T16:08:17.067Z,18.20
2022-09-15T16:10:46.456Z,18.30
2022-09-15T16:13:14.907Z,18.30
2022-09-15T16:15:42.891Z,18.30
2022-09-15T16:18:10.576Z,18.30
2022-09-15T16:20:38.264Z,18.30
2022-09-15T16:23:06.000Z,18.20
2022-09-15T16:25:38.851Z,18.20
2022-09-15T16:28:06.345Z,18.10
2022-09-15T16:30:34.153Z,18.10
2022-09-15T16:33:04.242Z,18.00
2022-09-15T16:35:34.572Z,17.90
2022-09-15T16:38:01.962Z,17.70
2022-09-15T16:40:29.453Z,17.50
2022-09-15T16:42:56.924Z,17.30
2022-09-15T16:45:39.961Z,17.10
2022-09-15T16:48:09.412Z,16.90
2022-09-15T16:50:39.839Z,16.70
2022-09-15T16:53:18.108Z,16.60
2022-09-15T16:55:46.855Z,16.40
2022-09-15T16:58:15.793Z,16.20
2022-09-15T17:00:47.014Z,16.10
2022-09-15T17:03:16.085Z,16.00
2022-09-15T17:05:48.636Z,16.00
2022-09-15T17:08:17.465Z,15.90
2022-09-15T17:10:45.978Z,15.80
2022-09-15T17:13:19.983Z,15.70
2022-09-15T17:15:48.038Z,15.70
2022-09-15T17:18:15.875Z,15.50
2022-09-15T17:20:44.299Z,15.50
2022-09-15T17:23:30.065Z,15.40
2022-09-15T17:26:01.680Z,15.30
2022-09-15T17:28:31.828Z,15.30
2022-09-15T17:31:00.721Z,15.30
2022-09-15T17:33:30.977Z,15.20
2022-09-15T17:36:00.133Z,15.20
2022-09-15T17:38:27.920Z,15.20
2022-09-15T17:40:59.344Z,15.20
2022-09-15T17:43:28.022Z,15.20
2022-09-15T17:45:55.886Z,15.20
2022-09-15T17:48:23.663Z,15.20
2022-09-15T17:50:51.742Z,15.30
2022-09-15T17:53:23.345Z,15.30
2022-09-15T17:55:51.245Z,15.30
2022-09-15T17:58:18.947Z,15.30
2022-09-15T18:00:46.417Z,15.30
2022-09-15T18:03:30.611Z,15.30
2022-09-15T18:06:00.389Z,15.30
2022-09-15T18:08:28.187Z,15.30
2022-09-15T18:10:55.924Z,15.30
2022-09-15T18:13:25.567Z,15.30
2022-09-15T18:15:53.519Z,15.30
2022-09-15T18:18:21.940Z,15.30
2022-09-15T18:20:51.180Z,15.40
2022-09-15T18:23:20.073Z,15.40
2022-09-15T18:25:48.051Z,15.40
2022-09-15T18:28:15.967Z,15.40
2022-09-15T18:30:44.671Z,15.40
2022-09-15T18:33:16.020Z,15.40
2022-09-15T18:35:46.432Z,15.40
2022-09-15T18:38:14.048Z,15.40
2022-09-15T18:40:45.734Z,15.50
2022-09-15T18:43:13.209Z,15.40
2022-09-15T18:45:41.363Z,15.40
2022-09-15T18:48:12.633Z,15.40
2022-09-15T18:50:41.588Z,15.40
2022-09-15T18:53:09.825Z,15.40
2022-09-15T18:55:40.037Z,15.30
2022-09-15T18:58:07.449Z,15.30
2022-09-15T19:00:36.612Z,15.30
2022-09-15T19:03:05.823Z,15.30
2022-09-15T19:05:34.550Z,15.30
2022-09-15T19:08:02.521Z,15.30
2022-09-15T19:10:30.499Z,15.30
2022-09-15T19:12:59.307Z,15.30
2022-09-15T19:15:30.105Z,15.30
2022-09-15T19:17:57.423Z,15.30
2022-09-15T19:20:27.061Z,15.30
2022-09-15T19:22:54.323Z,15.30
2022-09-15T19:25:21.715Z,15.30
2022-09-15T19:27:49.179Z,15.30
2022-09-15T19:30:16.737Z,15.20
2022-09-15T19:32:44.141Z,15.20
2022-09-15T19:35:11.723Z,15.20
2022-09-15T19:37:40.257Z,15.10
2022-09-15T19:40:11.649Z,15.10
2022-09-15T19:42:39.755Z,15.10
2022-09-15T19:45:07.958Z,15.00
2022-09-15T19:47:35.771Z,15.00
2022-09-15T19:50:05.807Z,15.00
2022-09-15T19:52:33.337Z,15.00
2022-09-15T19:55:00.650Z,15.00
2022-09-15T19:57:28.235Z,15.00
2022-09-15T19:59:55.567Z,15.00
2022-09-15T20:02:22.911Z,15.10
2022-09-15T20:04:50.527Z,15.10
2022-09-15T20:07:17.983Z,15.10
2022-09-15T20:09:45.405Z,15.10
2022-09-15T20:12:12.708Z,15.10
2022-09-15T20:14:40.973Z,15.10
2022-09-15T20:17:08.429Z,15.10
2022-09-15T20:19:36.483Z,15.00
2022-09-15T20:22:04.299Z,15.00
2022-09-15T20:24:31.658Z,14.90
2022-09-15T20:26:59.498Z,14.90
2022-09-15T20:29:26.800Z,14.90
2022-09-15T20:31:54.196Z,14.90
2022-09-15T20:34:21.527Z,14.80
2022-09-15T20:36:49.442Z,14.90
2022-09-15T20:39:18.947Z,14.80
2022-09-15T20:41:46.254Z,14.80
2022-09-15T20:44:14.005Z,14.80
2022-09-15T20:46:41.453Z,14.80
2022-09-15T20:49:09.614Z,14.80
2022-09-15T20:51:36.993Z,14.80
2022-09-15T20:54:04.468Z,14.70
2022-09-15T20:56:33.092Z,14.70
2022-09-15T20:59:00.968Z,14.70
2022-09-15T21:01:29.636Z,14.70
2022-09-15T21:03:57.266Z,14.80
2022-09-15T21:06:26.028Z,14.70
2022-09-15T21:08:53.637Z,14.80
2022-09-15T21:11:21.981Z,14.80
2022-09-15T21:13:49.530Z,14.80
2022-09-15T21:16:18.674Z,14.90
2022-09-15T21:18:46.223Z,14.90
2022-09-15T21:21:17.540Z,14.90
2022-09-15T21:23:45.936Z,14.90
2022-09-15T21:26:15.040Z,14.90
2022-09-15T21:28:43.767Z,14.90
2022-09-15T21:31:12.543Z,14.90
2022-09-15T21:33:40.246Z,14.90
2022-09-15T21:36:07.678Z,14.90
2022-09-15T21:38:38.418Z,14.80
2022-09-15T21:41:07.194Z,14.80
2022-09-15T21:43:36.351Z,14.80
2022-09-15T21:46:05.029Z,14.80
2022-09-15T21:48:33.077Z,14.70
2022-09-15T21:51:03.148Z,14.70
2022-09-15T21:53:35.594Z,14.70
2022-09-15T21:56:03.899Z,14.70
2022-09-15T21:58:41.714Z,14.70
2022-09-15T22:01:11.757Z,14.60
2022-09-15T22:03:42.435Z,14.60
2022-09-15T22:06:10.872Z,14.60
2022-09-15T22:08:40.525Z,14.60
2022-09-15T22:11:08.408Z,14.60
2022-09-15T22:13:43.806Z,14.60
2022-09-15T22:16:14.017Z,14.50
2022-09-15T22:18:41.892Z,14.50
2022-09-15T22:21:20.355Z,14.50
2022-09-15T22:23:48.507Z,14.50
2022-09-15T22:26:17.267Z,14.60
2022-09-15T22:28:44.898Z,14.60
2022-09-15T22:31:13.460Z,14.60
2022-09-15T22:33:41.509Z,14.60
2022-09-15T22:36:10.311Z,14.60
2022-09-15T22:38:37.940Z,14.60
2022-09-15T22:41:06.774Z,14.60
2022-09-15T22:43:34.103Z,14.60
2022-09-15T22:46:01.814Z,14.60
2022-09-15T22:48:29.396Z,14.60
2022-09-15T22:50:56.709Z,14.60
2022-09-15T22:53:24.133Z,14.60
2022-09-15T22:55:52.045Z,14.60
2022-09-15T22:58:19.724Z,14.60
2022-09-15T23:00:47.148Z,14.50
2022-09-15T23:03:14.570Z,14.50
2022-09-15T23:05:42.034Z,14.50
2022-09-15T23:08:09.410Z,14.50
2022-09-15T23:10:36.925Z,14.50
2022-09-15T23:13:04.260Z,14.50
2022-09-15T23:15:34.210Z,14.50
2022-09-15T23:18:01.405Z,14.50
2022-09-15T23:20:28.821Z,14.50
2022-09-15T23:22:56.187Z,14.50
2022-09-15T23:25:23.944Z,14.60
2022-09-15T23:27:51.503Z,14.50
2022-09-15T23:30:18.884Z,14.60
2022-09-15T23:32:46.214Z,14.50
2022-09-15T23:35:13.623Z,14.50
2022-09-15T23:37:40.862Z,14.60
2022-09-15T23:40:08.364Z,14.60
2022-09-15T23:42:35.722Z,14.50
2022-09-15T23:45:03.022Z,14.60
2022-09-15T23:47:30.405Z,14.60
2022-09-15T23:49:57.695Z,14.60
2022-09-15T23:52:25.014Z,14.60
2022-09-15T23:54:52.285Z,14.60
2022-09-15T23:57:19.691Z,14.50
2022-09-15T23:59:47.019Z,14.50
